Time,TemperatureF,DewpointF,PressureIn,WindDirection,WindDirectionDegrees,WindSpeedMPH,WindSpeedGustMPH,Humidity,HourlyPrecipIn,Conditions,Clouds,dailyrainin,SoftwareType,DateUTC
2013-07-09 00:12:00,74.0,66.0,29.98,SSE,147,0.0,-999.0,77,-99.99,,,0.00,weatherlink.com 1.10,2013-07-09 04:12:00,
2013-07-09 00:27:00,74.2,66.0,29.98,SSE,157,0.0,-999.0,76,-99.99,,,0.00,weatherlink.com 1.10,2013-07-09 04:27:00,
2013-07-09 00:42:00,74.2,66.0,29.98,SSE,158,0.0,-999.0,76,-99.99,,,0.00,weatherlink.com 1.10,2013-07-09 04:42:00,
2013-07-09 00:57:00,74.2,66.0,29.98,SW,215,0.0,-999.0,76,-99.99,,,0.00,weatherlink.com 1.10,2013-07-09 04:57:00,
2013-07-09 01:12:00,74.4,65.0,29.98,South,185,0.0,-999.0,73,-99.99,,,0.00,weatherlink.com 1.10,2013-07-09 05:12:00,
2013-07-09 01:27:00,74.4,65.0,29.97,South,174,0.0,-999.0,73,-99.99,,,0.00,weatherlink.com 1.10,2013-07-09 05:27:00,
2013-07-09 01:42:00,73.2,66.0,29.97,SW,220,0.0,-999.0,79,-99.99,,,0.07,weatherlink.com 1.10,2013-07-09 05:42:00,
2013-07-09 06:31:00,69.4,66.0,29.96,ESE,120,0.0,-999.0,90,-99.99,,,0.55,weatherlink.com 1.10,2013-07-09 10:31:00,
2013-07-09 06:46:00,69.1,66.0,29.96,SE,133,0.0,-999.0,89,-99.99,,,0.55,weatherlink.com 1.10,2013-07-09 10:46:00,
2013-07-09 07:01:00,68.6,65.0,29.95,SE,127,0.0,-999.0,89,-99.99,,,0.55,weatherlink.com 1.10,2013-07-09 11:01:00,
2013-07-09 07:16:00,68.4,65.0,29.96,ENE,76,0.0,-999.0,88,-99.99,,,0.55,weatherlink.com 1.10,2013-07-09 11:16:00,
2013-07-09 07:31:00,68.9,65.0,29.96,South,179,0.0,-999.0,86,-99.99,,,0.55,weatherlink.com 1.10,2013-07-09 11:31:00,
2013-07-09 07:46:00,69.4,65.0,29.96,SE,134,0.0,-999.0,86,-99.99,,,0.55,weatherlink.com 1.10,2013-07-09 11:46:00,
2013-07-09 08:01:00,69.9,65.0,29.96,SSE,155,0.0,-999.0,85,-99.99,,,0.55,weatherlink.com 1.10,2013-07-09 12:01:00,
2013-07-09 08:16:00,70.3,66.0,29.97,SE,144,0.0,-999.0,85,-99.99,,,0.55,weatherlink.com 1.10,2013-07-09 12:16:00,
2013-07-09 08:31:00,70.6,65.0,29.98,SW,227,1.0,-999.0,83,-99.99,,,0.56,weatherlink.com 1.10,2013-07-09 12:31:00,
2013-07-09 08:46:00,70.3,66.0,29.97,SE,127,1.0,-999.0,85,-99.99,,,0.56,weatherlink.com 1.10,2013-07-09 12:46:00,
2013-07-09 09:01:00,70.8,66.0,29.97,South,175,1.0,-999.0,85,-99.99,,,0.56,weatherlink.com 1.10,2013-07-09 13:01:00,
2013-07-09 09:16:00,71.8,66.0,29.96,SE,137,0.0,-999.0,81,-99.99,,,0.56,weatherlink.com 1.10,2013-07-09 13:16:00,
2013-07-09 09:31:00,72.5,66.0,29.96,West,265,0.0,-999.0,80,-99.99,,,0.56,weatherlink.com 1.10,2013-07-09 13:31:00,
2013-07-09 09:46:00,73.0,66.0,29.96,SSW,192,0.0,-999.0,78,-99.99,,,0.56,weatherlink.com 1.10,2013-07-09 13:46:00,
2013-07-09 10:01:00,73.0,66.0,29.96,SSE,158,0.0,-999.0,79,-99.99,,,0.56,weatherlink.com 1.10,2013-07-09 14:01:00,
2013-07-09 10:16:00,72.7,64.0,29.98,West,268,0.0,-999.0,75,-99.99,,,0.56,weatherlink.com 1.10,2013-07-09 14:16:00,
2013-07-09 10:31:00,72.3,64.0,29.98,SSE,157,5.0,-999.0,76,-99.99,,,0.56,weatherlink.com 1.10,2013-07-09 14:31:00,
2013-07-09 10:46:00,72.0,65.0,29.98,WSW,241,0.0,-999.0,78,-99.99,,,0.56,weatherlink.com 1.10,2013-07-09 14:46:00,
2013-07-09 11:01:00,71.1,65.0,29.98,SSW,210,0.0,-999.0,81,-99.99,,,0.60,weatherlink.com 1.10,2013-07-09 15:01:00,
2013-07-09 11:16:00,69.8,65.0,29.98,South,178,0.0,-999.0,85,-99.99,,,0.60,weatherlink.com 1.10,2013-07-09 15:16:00,
2013-07-09 11:31:00,69.8,66.0,29.98,SW,216,0.0,-999.0,86,-99.99,,,0.60,weatherlink.com 1.10,2013-07-09 15:31:00,
2013-07-09 11:46:00,70.1,65.0,29.98,South,184,0.0,-999.0,85,-99.99,,,0.60,weatherlink.com 1.10,2013-07-09 15:46:00,
2013-07-09 12:01:00,71.6,66.0,29.97,SSW,199,0.0,-999.0,83,-99.99,,,0.60,weatherlink.com 1.10,2013-07-09 16:01:00,
2013-07-09 12:16:00,71.8,66.0,29.97,SSE,165,0.0,-999.0,82,-99.99,,,0.61,weatherlink.com 1.10,2013-07-09 16:16:00,
2013-07-09 12:31:00,73.2,66.0,29.96,South,174,4.0,-999.0,79,-99.99,,,0.61,weatherlink.com 1.10,2013-07-09 16:31:00,
2013-07-09 12:46:00,74.2,67.0,29.96,SSW,210,2.0,-999.0,78,-99.99,,,0.61,weatherlink.com 1.10,2013-07-09 16:46:00,
2013-07-09 13:01:00,74.6,67.0,29.96,SSE,167,5.0,-999.0,76,-99.99,,,0.61,weatherlink.com 1.10,2013-07-09 17:01:00,
2013-07-09 13:16:00,75.8,67.0,29.96,SSW,193,0.0,-999.0,75,-99.99,,,0.61,weatherlink.com 1.10,2013-07-09 17:16:00,
2013-07-09 13:31:00,75.8,68.0,29.96,South,179,0.0,-999.0,76,-99.99,,,0.61,weatherlink.com 1.10,2013-07-09 17:31:00,
2013-07-09 13:46:00,75.4,67.0,29.95,SSE,152,3.0,-999.0,75,-99.99,,,0.61,weatherlink.com 1.10,2013-07-09 17:46:00,
2013-07-09 14:01:00,75.3,68.0,29.95,SSW,212,0.0,-999.0,77,-99.99,,,0.61,weatherlink.com 1.10,2013-07-09 18:01:00,
2013-07-09 14:16:00,75.6,68.0,29.96,West,265,0.0,-999.0,76,-99.99,,,0.61,weatherlink.com 1.10,2013-07-09 18:16:00,
2013-07-09 14:31:00,76.5,68.0,29.95,West,261,5.0,-999.0,75,-99.99,,,0.61,weatherlink.com 1.10,2013-07-09 18:31:00,
2013-07-09 14:46:00,77.2,68.0,29.95,West,268,0.0,-999.0,72,-99.99,,,0.61,weatherlink.com 1.10,2013-07-09 18:46:00,
2013-07-09 15:01:00,76.8,68.0,29.94,SSW,209,0.0,-999.0,74,-99.99,,,0.61,weatherlink.com 1.10,2013-07-09 19:01:00,
2013-07-09 15:16:00,76.7,68.0,29.93,SSW,210,0.0,-999.0,75,-99.99,,,0.61,weatherlink.com 1.10,2013-07-09 19:16:00,
2013-07-09 15:31:00,76.3,68.0,29.93,South,174,0.0,-999.0,76,-99.99,,,0.61,weatherlink.com 1.10,2013-07-09 19:31:00,
2013-07-09 15:46:00,76.7,69.0,29.93,SSW,202,0.0,-999.0,76,-99.99,,,0.61,weatherlink.com 1.10,2013-07-09 19:46:00,
2013-07-09 16:01:00,77.4,69.0,29.92,South,184,0.0,-999.0,75,-99.99,,,0.61,weatherlink.com 1.10,2013-07-09 20:01:00,
2013-07-09 16:16:00,78.8,69.0,29.91,WSW,244,0.0,-999.0,72,-99.99,,,0.61,weatherlink.com 1.10,2013-07-09 20:16:00,
2013-07-09 16:31:00,79.0,69.0,29.90,WSW,240,0.0,-999.0,71,-99.99,,,0.61,weatherlink.com 1.10,2013-07-09 20:31:00,
2013-07-09 16:47:00,79.9,69.0,29.89,SW,220,0.0,-999.0,70,-99.99,,,0.61,weatherlink.com 1.10,2013-07-09 20:47:00,
2013-07-09 17:02:00,80.1,70.0,29.88,WSW,237,0.0,-999.0,70,-99.99,,,0.61,weatherlink.com 1.10,2013-07-09 21:02:00,
2013-07-09 17:17:00,80.5,70.0,29.88,SW,232,0.0,-999.0,71,-99.99,,,0.61,weatherlink.com 1.10,2013-07-09 21:17:00,
2013-07-09 17:32:00,81.2,71.0,29.88,SW,226,0.0,-999.0,70,-99.99,,,0.61,weatherlink.com 1.10,2013-07-09 21:32:00,
2013-07-09 17:47:00,80.9,70.0,29.88,SE,124,0.0,-999.0,69,-99.99,,,0.61,weatherlink.com 1.10,2013-07-09 21:47:00,
2013-07-09 18:02:00,81.6,70.0,29.87,SSW,200,0.0,-999.0,68,-99.99,,,0.61,weatherlink.com 1.10,2013-07-09 22:02:00,
2013-07-09 18:17:00,82.0,71.0,29.87,SW,217,0.0,-999.0,69,-99.99,,,0.61,weatherlink.com 1.10,2013-07-09 22:17:00,
2013-07-09 18:32:00,80.9,70.0,29.87,SW,233,0.0,-999.0,70,-99.99,,,0.61,weatherlink.com 1.10,2013-07-09 22:32:00,
2013-07-09 18:47:00,79.8,70.0,29.88,South,189,5.0,-999.0,72,-99.99,,,0.61,weatherlink.com 1.10,2013-07-09 22:47:00,
2013-07-09 19:02:00,78.5,69.0,29.89,South,178,1.0,-999.0,72,-99.99,,,0.61,weatherlink.com 1.10,2013-07-09 23:02:00,
2013-07-09 19:17:00,77.7,68.0,29.89,SSE,168,5.0,-999.0,73,-99.99,,,0.61,weatherlink.com 1.10,2013-07-09 23:17:00,
2013-07-09 19:32:00,77.4,69.0,29.89,SE,136,0.0,-999.0,75,-99.99,,,0.61,weatherlink.com 1.10,2013-07-09 23:32:00,
2013-07-09 19:47:00,77.0,69.0,29.89,SSE,164,0.0,-999.0,75,-99.99,,,0.61,weatherlink.com 1.10,2013-07-09 23:47:00,
2013-07-09 20:02:00,77.2,68.0,29.89,South,185,2.0,-999.0,74,-99.99,,,0.61,weatherlink.com 1.10,2013-07-10 00:02:00,
2013-07-09 21:10:00,68.9,66.0,29.93,South,178,0.0,-999.0,89,-99.99,,,0.77,weatherlink.com 1.10,2013-07-10 01:10:00,
2013-07-09 21:25:00,68.8,65.0,29.94,South,188,3.0,-999.0,88,-99.99,,,0.78,weatherlink.com 1.10,2013-07-10 01:25:00,
2013-07-09 21:40:00,69.3,65.0,29.95,SSE,154,0.0,-999.0,86,-99.99,,,0.78,weatherlink.com 1.10,2013-07-10 01:40:00,
2013-07-09 21:55:00,69.1,65.0,29.94,ESE,123,0.0,-999.0,87,-99.99,,,0.78,weatherlink.com 1.10,2013-07-10 01:55:00,
2013-07-09 22:10:00,69.3,66.0,29.94,South,174,5.0,-999.0,88,-99.99,,,0.78,weatherlink.com 1.10,2013-07-10 02:10:00,
2013-07-09 22:25:00,69.4,65.0,29.95,SSE,162,0.0,-999.0,87,-99.99,,,0.78,weatherlink.com 1.10,2013-07-10 02:25:00,
2013-07-09 22:40:00,69.4,66.0,29.95,SSW,195,0.0,-999.0,88,-99.99,,,0.78,weatherlink.com 1.10,2013-07-10 02:40:00,
2013-07-09 22:55:00,69.8,66.0,29.94,South,186,7.0,-999.0,88,-99.99,,,0.78,weatherlink.com 1.10,2013-07-10 02:55:00,
2013-07-09 23:10:00,69.8,66.0,29.93,SSW,198,8.0,-999.0,87,-99.99,,,0.79,weatherlink.com 1.10,2013-07-10 03:10:00,
2013-07-09 23:25:00,69.9,65.0,29.92,SE,134,0.0,-999.0,84,-99.99,,,0.79,weatherlink.com 1.10,2013-07-10 03:25:00,
2013-07-09 23:40:00,69.8,66.0,29.93,SE,134,0.0,-999.0,86,-99.99,,,0.79,weatherlink.com 1.10,2013-07-10 03:40:00,